Resolve — WDD7117 — position and weather

sailwx.info

Track history (hours):
 
Tides and Currents Weather Stations Pressure Air Temp Water Temp Dewpoint Dewpoint Depression Visibility Wind Speed Wind Dir Waves Ship Positions

Resolve

Owner: Intrepid Ship Management, jacksonville, FL. More information available from US FCC via Universal Licensing System and Coast Guard Vessel Documentation Center.

Last reported at 2018-Jul-15 02:08 UTC. Time now 2018-Jul-16 19:44 UTC.
Position N 29°08' W 094°22'.

Length 209 m; draft 6.8 m.

Type: Towing. MMSI: 367336000.

Date/timePositionNaut miles runAvg speedWind from/ knotsBaromVisibWave heightAir tempDewpointWater temp
2018-Jul-15 02:08N 29°08' W 094°22'110.0
2018-Jul-15 02:00N 29°08' W 094°24'9 9.4
2018-Jul-15 01:01N 29°13' W 094°33'1 9.7
2018-Jul-15 00:53N 29°14' W 094°34'410.7
2018-Jul-15 00:29N 29°17' W 094°38'1 1.7
2018-Jul-15 00:00N 29°17' W 094°39'0 0.0
2018-Jul-14 23:30N 29°17' W 094°39'0 0.0
2018-Jul-14 23:00N 29°17' W 094°39'0 0.8
2018-Jul-14 22:30N 29°17' W 094°39'4 8.2
2018-Jul-14 22:00N 29°20' W 094°42'5 9.5
2018-Jul-14 21:30N 29°21' W 094°47'4 7.9
2018-Jul-14 21:00N 29°22' W 094°51'2 4.8
2018-Jul-14 20:30N 29°22' W 094°54'1 1.1
2018-Jul-14 20:00N 29°22' W 094°54'0 0.0
2018-Jul-14 19:28N 29°22' W 094°54'0 0.0
2018-Jul-14 18:58N 29°22' W 094°54'0 0.0
2018-Jul-14 18:28N 29°22' W 094°54'0 0.0
2018-Jul-14 17:55N 29°22' W 094°54'0 0.0
2018-Jul-14 17:28N 29°22' W 094°54'0 0.0
2018-Jul-14 16:58N 29°22' W 094°54'0 0.0
2018-Jul-14 16:28N 29°22' W 094°54'0 0.0
2018-Jul-14 15:58N 29°22' W 094°54'0 0.0
2018-Jul-14 15:28N 29°22' W 094°54'0 0.0
2018-Jul-14 14:58N 29°22' W 094°54'0 0.0
2018-Jul-14 14:28N 29°22' W 094°54'0 0.0
2018-Jul-14 13:28N 29°22' W 094°54'0 0.0
2018-Jul-14 12:58N 29°22' W 094°54'0 0.0
2018-Jul-14 12:28N 29°22' W 094°54'0 0.0
2018-Jul-14 11:58N 29°22' W 094°54'0 0.0
2018-Jul-14 11:28N 29°22' W 094°54'0 0.0
2018-Jul-14 10:58N 29°22' W 094°54'0 0.0
2018-Jul-14 10:28N 29°22' W 094°54'0 0.0
2018-Jul-14 09:58N 29°22' W 094°54'0 0.0
2018-Jul-14 09:28N 29°22' W 094°54'0 0.0
2018-Jul-14 08:58N 29°22' W 094°54'0 0.0
2018-Jul-14 08:25N 29°22' W 094°54'0 0.0
2018-Jul-14 07:58N 29°22' W 094°54'0 0.0
2018-Jul-14 07:28N 29°22' W 094°54'0 0.0
2018-Jul-14 06:58N 29°22' W 094°54'0 0.0
2018-Jul-14 06:28N 29°22' W 094°54'0 0.0
2018-Jul-14 05:58N 29°22' W 094°54'0 0.0
2018-Jul-14 05:28N 29°22' W 094°54'0 0.0
2018-Jul-14 04:58N 29°22' W 094°54'0 0.0
2018-Jul-14 04:28N 29°22' W 094°54'0 0.0
2018-Jul-14 03:58N 29°22' W 094°54'0 0.0
2018-Jul-14 03:25N 29°22' W 094°54'0 0.0
2018-Jul-14 02:58N 29°22' W 094°54'0 0.0
2018-Jul-14 02:25N 29°22' W 094°54'0 0.0
2018-Jul-14 01:58N 29°22' W 094°54'0 0.0
2018-Jul-14 01:28N 29°22' W 094°54'0 0.0
2018-Jul-14 00:58N 29°22' W 094°54'0 0.0
2018-Jul-14 00:28N 29°22' W 094°54'0 0.0
2018-Jul-13 23:58N 29°22' W 094°54'0 0.0
2018-Jul-13 23:28N 29°22' W 094°54'0 0.0
2018-Jul-13 22:58N 29°22' W 094°54'0 0.0
2018-Jul-13 22:28N 29°22' W 094°54'0 0.0
2018-Jul-13 21:58N 29°22' W 094°54'0 0.0
2018-Jul-13 21:28N 29°22' W 094°54'0 0.0
2018-Jul-13 20:58N 29°22' W 094°54'0 0.0
2018-Jul-13 20:28N 29°22' W 094°54'0 0.0
2018-Jul-13 20:00N 29°22' W 094°54'0 0.0
2018-Jul-13 19:30N 29°22' W 094°54'0 1.0
2018-Jul-13 19:01N 29°22' W 094°55'2 3.3
2018-Jul-13 18:30N 29°23' W 094°53'5 9.2
2018-Jul-13 18:00N 29°21' W 094°48'3 5.8
2018-Jul-13 17:30N 29°21' W 094°45'0 0.1
2018-Jul-13 16:57N 29°21' W 094°45'0 0.1
2018-Jul-13 16:27N 29°21' W 094°45'0 0.0
2018-Jul-13 16:00N 29°21' W 094°45'0 0.0
2018-Jul-13 15:30N 29°21' W 094°45'0 0.0
2018-Jul-13 15:00N 29°21' W 094°45'0 0.0
2018-Jul-13 14:00N 29°21' W 094°45'0 0.0
2018-Jul-13 13:24N 29°21' W 094°45'0 0.0
2018-Jul-13 13:00N 29°21' W 094°45'0 0.0
2018-Jul-13 12:30N 29°21' W 094°45'0 0.0
2018-Jul-13 12:00N 29°21' W 094°45'0 0.6
2018-Jul-13 11:28N 29°21' W 094°45'3 5.8
2018-Jul-13 11:00N 29°21' W 094°42'611.9
2018-Jul-13 10:30N 29°18' W 094°36'611.2
2018-Jul-13 09:58N 29°14' W 094°30'610.0
2018-Jul-13 09:22N 29°11' W 094°24'18 9.4
2018-Jul-13 07:26N 29°01' W 094°07'510.4
2018-Jul-13 06:59N 28°58' W 094°03'510.6
2018-Jul-13 06:29N 28°55' W 093°58'510.7
2018-Jul-13 06:00N 28°51' W 093°53'  
2018-Jul-09 14:32N 25°20' W 080°03'0 7.9
2018-Jul-09 14:30N 25°20' W 080°03'4 7.5
2018-Jul-09 14:00N 25°23' W 080°02'4 7.7
2018-Jul-09 13:29N 25°27' W 080°02'3 7.2
2018-Jul-09 13:00N 25°31' W 080°02'3 6.9
2018-Jul-09 12:30N 25°34' W 080°01'4 7.2
2018-Jul-09 12:00N 25°38' W 080°01'4 7.1
2018-Jul-09 11:30N 25°41' W 080°00'4 7.1
2018-Jul-09 11:00N 25°45' W 079°60'4 7.0
2018-Jul-09 10:30N 25°48' W 079°60'3 6.9
2018-Jul-09 10:00N 25°52' W 079°59'3 6.9
2018-Jul-09 09:30N 25°55' W 079°59'3 6.9
2018-Jul-09 09:00N 25°59' W 079°59'3 6.8
2018-Jul-09 08:30N 26°02' W 079°58'3 6.8
2018-Jul-09 08:00N 26°06' W 079°58'3 6.6
2018-Jul-09 07:30N 26°09' W 079°58'3 6.6
2018-Jul-09 06:59N 26°12' W 079°58'4 6.9
2018-Jul-09 06:28N 26°16' W 079°59'3 6.5
2018-Jul-09 06:00N 26°19' W 079°59'3 6.9
2018-Jul-09 05:31N 26°22' W 079°58'4 6.9
2018-Jul-09 05:00N 26°26' W 079°58'3 6.9
2018-Jul-09 04:30N 26°29' W 079°58'4 7.1
2018-Jul-09 04:00N 26°33' W 079°57'4 7.0
2018-Jul-09 03:29N 26°36' W 079°57'3 6.8
2018-Jul-09 03:00N 26°39' W 079°57'3 6.7
2018-Jul-09 02:30N 26°43' W 079°57'4 6.6
2018-Jul-09 01:58N 26°46' W 079°57'5 6.5
2018-Jul-09 01:10N 26°52' W 079°57'1 6.5
2018-Jul-09 01:00N 26°53' W 079°57'3 6.5
2018-Jul-09 00:30N 26°56' W 079°58'3 6.5
2018-Jul-09 00:00N 26°59' W 079°58'3 6.4
2018-Jul-08 23:30N 27°02' W 079°59'4 7.3
2018-Jul-08 23:00N 27°06' W 079°60'338 9.3
2018-Jul-07 10:34N 32°43' W 079°48'114.0
2018-Jul-07 10:30N 32°44' W 079°49'611.7
2018-Jul-07 10:01N 32°47' W 079°55'5 9.5
2018-Jul-07 09:31N 32°51' W 079°57'4 5.9
2018-Jul-07 08:54N 32°55' W 079°56'2 0.1
2018-Jul-06 21:56N 32°54' W 079°57'3 6.8
2018-Jul-06 21:30N 32°51' W 079°57'0 0.0
2018-Jul-06 20:58N 32°51' W 079°57'0 0.0
2018-Jul-06 20:28N 32°51' W 079°57'0 0.0
2018-Jul-06 14:46N 32°51' W 079°57'0 0.0
2018-Jul-06 14:28N 32°51' W 079°57'0 0.0
2018-Jul-06 13:58N 32°51' W 079°57'0 0.0
2018-Jul-06 13:28N 32°51' W 079°57'0 0.0
2018-Jul-06 12:58N 32°51' W 079°57'0 0.0
2018-Jul-06 12:28N 32°51' W 079°57'0 0.0
2018-Jul-06 11:58N 32°51' W 079°57'0 0.0
2018-Jul-06 11:30N 32°51' W 079°57'0 0.5
2018-Jul-06 11:00N 32°51' W 079°57'2 0.1
2018-Jul-05 03:07N 32°54' W 079°58'1 7.9
2018-Jul-05 02:59N 32°53' W 079°58'4 7.6
2018-Jul-05 02:31N 32°50' W 079°56'  
Track history (hours):
 
Tides and Currents Weather Stations Pressure Air Temp Water Temp Dewpoint Dewpoint Depression Visibility Wind Speed Wind Dir Waves Ship Positions

Resolve

Owner: Intrepid Ship Management, jacksonville, FL. More information available from US FCC via Universal Licensing System and Coast Guard Vessel Documentation Center.

Last reported at 2018-Jul-15 02:08 UTC. Time now 2018-Jul-16 19:44 UTC.
Position N 29°08' W 094°22'.

Length 209 m; draft 6.8 m.

Type: Towing. MMSI: 367336000.

Date/timePositionNaut miles runAvg speedWind from/ knotsBaromVisibWave heightAir tempDewpointWater temp
2018-Jul-15 02:08N 29°08' W 094°22'110.0
2018-Jul-15 02:00N 29°08' W 094°24'9 9.4
2018-Jul-15 01:01N 29°13' W 094°33'1 9.7
2018-Jul-15 00:53N 29°14' W 094°34'410.7
2018-Jul-15 00:29N 29°17' W 094°38'1 1.7
2018-Jul-15 00:00N 29°17' W 094°39'0 0.0
2018-Jul-14 23:30N 29°17' W 094°39'0 0.0
2018-Jul-14 23:00N 29°17' W 094°39'0 0.8
2018-Jul-14 22:30N 29°17' W 094°39'4 8.2
2018-Jul-14 22:00N 29°20' W 094°42'5 9.5
2018-Jul-14 21:30N 29°21' W 094°47'4 7.9
2018-Jul-14 21:00N 29°22' W 094°51'2 4.8
2018-Jul-14 20:30N 29°22' W 094°54'1 1.1
2018-Jul-14 20:00N 29°22' W 094°54'0 0.0
2018-Jul-14 19:28N 29°22' W 094°54'0 0.0
2018-Jul-14 18:58N 29°22' W 094°54'0 0.0
2018-Jul-14 18:28N 29°22' W 094°54'0 0.0
2018-Jul-14 17:55N 29°22' W 094°54'0 0.0
2018-Jul-14 17:28N 29°22' W 094°54'0 0.0
2018-Jul-14 16:58N 29°22' W 094°54'0 0.0
2018-Jul-14 16:28N 29°22' W 094°54'0 0.0
2018-Jul-14 15:58N 29°22' W 094°54'0 0.0
2018-Jul-14 15:28N 29°22' W 094°54'0 0.0
2018-Jul-14 14:58N 29°22' W 094°54'0 0.0
2018-Jul-14 14:28N 29°22' W 094°54'0 0.0
2018-Jul-14 13:28N 29°22' W 094°54'0 0.0
2018-Jul-14 12:58N 29°22' W 094°54'0 0.0
2018-Jul-14 12:28N 29°22' W 094°54'0 0.0
2018-Jul-14 11:58N 29°22' W 094°54'0 0.0
2018-Jul-14 11:28N 29°22' W 094°54'0 0.0
2018-Jul-14 10:58N 29°22' W 094°54'0 0.0
2018-Jul-14 10:28N 29°22' W 094°54'0 0.0
2018-Jul-14 09:58N 29°22' W 094°54'0 0.0
2018-Jul-14 09:28N 29°22' W 094°54'0 0.0
2018-Jul-14 08:58N 29°22' W 094°54'0 0.0
2018-Jul-14 08:25N 29°22' W 094°54'0 0.0
2018-Jul-14 07:58N 29°22' W 094°54'0 0.0
2018-Jul-14 07:28N 29°22' W 094°54'0 0.0
2018-Jul-14 06:58N 29°22' W 094°54'0 0.0
2018-Jul-14 06:28N 29°22' W 094°54'0 0.0
2018-Jul-14 05:58N 29°22' W 094°54'0 0.0
2018-Jul-14 05:28N 29°22' W 094°54'0 0.0
2018-Jul-14 04:58N 29°22' W 094°54'0 0.0
2018-Jul-14 04:28N 29°22' W 094°54'0 0.0
2018-Jul-14 03:58N 29°22' W 094°54'0 0.0
2018-Jul-14 03:25N 29°22' W 094°54'0 0.0
2018-Jul-14 02:58N 29°22' W 094°54'0 0.0
2018-Jul-14 02:25N 29°22' W 094°54'0 0.0
2018-Jul-14 01:58N 29°22' W 094°54'0 0.0
2018-Jul-14 01:28N 29°22' W 094°54'0 0.0
2018-Jul-14 00:58N 29°22' W 094°54'0 0.0
2018-Jul-14 00:28N 29°22' W 094°54'0 0.0
2018-Jul-13 23:58N 29°22' W 094°54'0 0.0
2018-Jul-13 23:28N 29°22' W 094°54'0 0.0
2018-Jul-13 22:58N 29°22' W 094°54'0 0.0
2018-Jul-13 22:28N 29°22' W 094°54'0 0.0
2018-Jul-13 21:58N 29°22' W 094°54'0 0.0
2018-Jul-13 21:28N 29°22' W 094°54'0 0.0
2018-Jul-13 20:58N 29°22' W 094°54'0 0.0
2018-Jul-13 20:28N 29°22' W 094°54'0 0.0
2018-Jul-13 20:00N 29°22' W 094°54'0 0.0
2018-Jul-13 19:30N 29°22' W 094°54'0 1.0
2018-Jul-13 19:01N 29°22' W 094°55'2 3.3
2018-Jul-13 18:30N 29°23' W 094°53'5 9.2
2018-Jul-13 18:00N 29°21' W 094°48'3 5.8
2018-Jul-13 17:30N 29°21' W 094°45'0 0.1
2018-Jul-13 16:57N 29°21' W 094°45'0 0.1
2018-Jul-13 16:27N 29°21' W 094°45'0 0.0
2018-Jul-13 16:00N 29°21' W 094°45'0 0.0
2018-Jul-13 15:30N 29°21' W 094°45'0 0.0
2018-Jul-13 15:00N 29°21' W 094°45'0 0.0
2018-Jul-13 14:00N 29°21' W 094°45'0 0.0
2018-Jul-13 13:24N 29°21' W 094°45'0 0.0
2018-Jul-13 13:00N 29°21' W 094°45'0 0.0
2018-Jul-13 12:30N 29°21' W 094°45'0 0.0
2018-Jul-13 12:00N 29°21' W 094°45'0 0.6
2018-Jul-13 11:28N 29°21' W 094°45'3 5.8
2018-Jul-13 11:00N 29°21' W 094°42'611.9
2018-Jul-13 10:30N 29°18' W 094°36'611.2
2018-Jul-13 09:58N 29°14' W 094°30'610.0
2018-Jul-13 09:22N 29°11' W 094°24'18 9.4
2018-Jul-13 07:26N 29°01' W 094°07'510.4
2018-Jul-13 06:59N 28°58' W 094°03'510.6
2018-Jul-13 06:29N 28°55' W 093°58'510.7
2018-Jul-13 06:00N 28°51' W 093°53'  
2018-Jul-09 14:32N 25°20' W 080°03'0 7.9
2018-Jul-09 14:30N 25°20' W 080°03'4 7.5
2018-Jul-09 14:00N 25°23' W 080°02'4 7.7
2018-Jul-09 13:29N 25°27' W 080°02'3 7.2
2018-Jul-09 13:00N 25°31' W 080°02'3 6.9
2018-Jul-09 12:30N 25°34' W 080°01'4 7.2
2018-Jul-09 12:00N 25°38' W 080°01'4 7.1
2018-Jul-09 11:30N 25°41' W 080°00'4 7.1
2018-Jul-09 11:00N 25°45' W 079°60'4 7.0
2018-Jul-09 10:30N 25°48' W 079°60'3 6.9
2018-Jul-09 10:00N 25°52' W 079°59'3 6.9
2018-Jul-09 09:30N 25°55' W 079°59'3 6.9
2018-Jul-09 09:00N 25°59' W 079°59'3 6.8
2018-Jul-09 08:30N 26°02' W 079°58'3 6.8
2018-Jul-09 08:00N 26°06' W 079°58'3 6.6
2018-Jul-09 07:30N 26°09' W 079°58'3 6.6
2018-Jul-09 06:59N 26°12' W 079°58'4 6.9
2018-Jul-09 06:28N 26°16' W 079°59'3 6.5
2018-Jul-09 06:00N 26°19' W 079°59'3 6.9
2018-Jul-09 05:31N 26°22' W 079°58'4 6.9
2018-Jul-09 05:00N 26°26' W 079°58'3 6.9
2018-Jul-09 04:30N 26°29' W 079°58'4 7.1
2018-Jul-09 04:00N 26°33' W 079°57'4 7.0
2018-Jul-09 03:29N 26°36' W 079°57'3 6.8
2018-Jul-09 03:00N 26°39' W 079°57'3 6.7
2018-Jul-09 02:30N 26°43' W 079°57'4 6.6
2018-Jul-09 01:58N 26°46' W 079°57'5 6.5
2018-Jul-09 01:10N 26°52' W 079°57'1 6.5
2018-Jul-09 01:00N 26°53' W 079°57'3 6.5
2018-Jul-09 00:30N 26°56' W 079°58'3 6.5
2018-Jul-09 00:00N 26°59' W 079°58'3 6.4
2018-Jul-08 23:30N 27°02' W 079°59'4 7.3
2018-Jul-08 23:00N 27°06' W 079°60'338 9.3
2018-Jul-07 10:34N 32°43' W 079°48'114.0
2018-Jul-07 10:30N 32°44' W 079°49'611.7
2018-Jul-07 10:01N 32°47' W 079°55'5 9.5
2018-Jul-07 09:31N 32°51' W 079°57'4 5.9
2018-Jul-07 08:54N 32°55' W 079°56'2 0.1
2018-Jul-06 21:56N 32°54' W 079°57'3 6.8
2018-Jul-06 21:30N 32°51' W 079°57'0 0.0
2018-Jul-06 20:58N 32°51' W 079°57'0 0.0
2018-Jul-06 20:28N 32°51' W 079°57'0 0.0
2018-Jul-06 14:46N 32°51' W 079°57'0 0.0
2018-Jul-06 14:28N 32°51' W 079°57'0 0.0
2018-Jul-06 13:58N 32°51' W 079°57'0 0.0
2018-Jul-06 13:28N 32°51' W 079°57'0 0.0
2018-Jul-06 12:58N 32°51' W 079°57'0 0.0
2018-Jul-06 12:28N 32°51' W 079°57'0 0.0
2018-Jul-06 11:58N 32°51' W 079°57'0 0.0
2018-Jul-06 11:30N 32°51' W 079°57'0 0.5
2018-Jul-06 11:00N 32°51' W 079°57'2 0.1
2018-Jul-05 03:07N 32°54' W 079°58'1 7.9
2018-Jul-05 02:59N 32°53' W 079°58'4 7.6
2018-Jul-05 02:31N 32°50' W 079°56'  

Dump ship's entire track history